Colome, South Dakota
Current Conditions -  °F | °C
As of 11:53 AM on Tuesday 21 Oct 2014 (Local Time) from KICR Reporting Station
Clear Clear  
Wind Chill: 76°   Ceiling: Unl
Heat Index: 76°   Visibility: 10mi
Dew Point: 43°   Wind: 26mph
Humidity: 31%   Direction: 200°SSW
Pressure: 29.91"   Gusts: 36mph
Location:  43.26°N, 99.72°W
Report Text: KICR 211653Z AUTO 20023G31KT 10SM CLR 24/06 A2991 RMK AO2 PK WND 19031/1651 SLP118 T02440061
Loading
Personal Weather Stations






























Interactive Weather Map
Tropical Storm Tracking
New forecast layout! Learn more

10-Day Weather Forecast

Advertisements
Track Severe Weather on mobile